createdAt,value
2023-04-16T00:00:48.557Z,87.10
2023-04-16T00:03:18.119Z,87.10
2023-04-16T00:05:45.151Z,87.10
2023-04-16T00:08:13.907Z,87.10
2023-04-16T00:10:41.141Z,87.10
2023-04-16T00:13:08.347Z,87.10
2023-04-16T00:15:35.596Z,87.10
2023-04-16T00:18:02.814Z,87.20
2023-04-16T00:20:29.855Z,87.20
2023-04-16T00:22:56.937Z,87.70
2023-04-16T00:25:25.017Z,87.20
2023-04-16T00:27:52.044Z,87.20
2023-04-16T00:30:19.206Z,87.30
2023-04-16T00:32:46.267Z,87.30
2023-04-16T00:35:13.164Z,87.30
2023-04-16T00:37:40.096Z,87.40
2023-04-16T00:40:07.674Z,87.30
2023-04-16T00:42:42.394Z,87.40
2023-04-16T00:45:10.299Z,87.30
2023-04-16T00:47:38.969Z,87.40
2023-04-16T00:50:06.376Z,87.30
2023-04-16T00:52:33.341Z,87.40
2023-04-16T00:55:03.240Z,87.30
2023-04-16T00:57:32.944Z,87.40
2023-04-16T00:59:59.858Z,87.30
2023-04-16T01:02:26.979Z,87.40
2023-04-16T01:04:54.010Z,87.50
2023-04-16T01:07:20.942Z,87.50
2023-04-16T01:09:50.610Z,87.40
2023-04-16T01:12:17.578Z,87.50
2023-04-16T01:14:44.551Z,87.50
2023-04-16T01:17:11.709Z,87.50
2023-04-16T01:19:38.754Z,87.60
2023-04-16T01:22:08.977Z,87.60
2023-04-16T01:24:36.671Z,87.60
2023-04-16T01:27:06.246Z,87.60
2023-04-16T01:29:39.427Z,87.60
2023-04-16T01:32:06.564Z,87.60
2023-04-16T01:34:33.610Z,87.70
2023-04-16T01:37:03.179Z,87.70
2023-04-16T01:39:30.175Z,87.70
2023-04-16T01:41:57.320Z,87.70
2023-04-16T01:44:24.378Z,87.70
2023-04-16T01:46:51.401Z,87.70
2023-04-16T01:49:18.274Z,87.70
2023-04-16T01:51:45.241Z,87.70
2023-04-16T01:54:12.289Z,87.70
2023-04-16T01:56:39.238Z,87.80
2023-04-16T01:59:06.202Z,87.80
2023-04-16T02:01:33.177Z,87.80
2023-04-16T02:04:00.207Z,87.80
2023-04-16T02:06:27.700Z,87.80
2023-04-16T02:08:54.686Z,87.80
2023-04-16T02:11:21.632Z,87.80
2023-04-16T02:13:48.582Z,87.80
2023-04-16T02:16:15.785Z,87.80
2023-04-16T02:18:42.815Z,87.80
2023-04-16T02:21:09.980Z,87.80
2023-04-16T02:23:37.598Z,87.80
2023-04-16T02:26:07.594Z,87.90
2023-04-16T02:28:34.535Z,87.90
2023-04-16T02:31:01.470Z,87.90
2023-04-16T02:33:32.156Z,88.00
2023-04-16T02:35:59.268Z,88.00
2023-04-16T02:38:26.271Z,88.00
2023-04-16T02:40:53.192Z,88.00
2023-04-16T02:43:20.095Z,88.00
2023-04-16T02:45:47.161Z,88.00
2023-04-16T02:48:15.479Z,88.00
2023-04-16T02:50:42.471Z,88.00
2023-04-16T02:53:10.816Z,88.00
2023-04-16T02:55:40.030Z,88.00
2023-04-16T02:58:07.073Z,88.10
2023-04-16T03:00:39.053Z,88.10
2023-04-16T03:03:06.165Z,88.00
2023-04-16T03:05:33.055Z,88.00
2023-04-16T03:08:00.089Z,88.00
2023-04-16T03:10:27.138Z,88.10
2023-04-16T03:12:54.150Z,88.10
2023-04-16T03:15:21.137Z,88.10
2023-04-16T03:17:48.147Z,88.10
2023-04-16T03:20:17.072Z,88.10
2023-04-16T03:22:44.086Z,88.10
2023-04-16T03:25:11.306Z,88.10
2023-04-16T03:27:39.774Z,88.10
2023-04-16T03:30:08.076Z,88.20
2023-04-16T03:32:35.056Z,88.10
2023-04-16T03:35:02.153Z,88.10
2023-04-16T03:37:29.326Z,88.10
2023-04-16T03:39:59.366Z,88.20
2023-04-16T03:42:26.491Z,88.10
2023-04-16T03:44:53.910Z,88.00
2023-04-16T03:47:21.383Z,88.00
2023-04-16T03:49:48.466Z,88.00
2023-04-16T03:52:15.420Z,88.00
2023-04-16T03:54:43.364Z,88.00
2023-04-16T03:57:10.554Z,88.00
2023-04-16T03:59:37.490Z,88.00
2023-04-16T04:02:05.040Z,88.00
2023-04-16T04:04:32.394Z,88.00
2023-04-16T04:06:59.426Z,88.00
2023-04-16T04:09:26.475Z,88.00
2023-04-16T04:11:53.561Z,88.00
2023-04-16T04:14:20.501Z,88.00
2023-04-16T04:16:48.513Z,88.00
2023-04-16T04:19:15.546Z,88.00
2023-04-16T04:21:42.552Z,87.90
2023-04-16T04:24:09.492Z,87.80
2023-04-16T04:26:36.505Z,87.90
2023-04-16T04:29:03.390Z,87.90
2023-04-16T04:31:31.091Z,87.80
2023-04-16T04:33:58.210Z,87.80
2023-04-16T04:36:25.232Z,87.90
2023-04-16T04:38:52.208Z,87.90
2023-04-16T04:41:19.202Z,87.90
2023-04-16T04:43:46.166Z,87.90
2023-04-16T04:46:13.224Z,87.90
2023-04-16T04:48:40.280Z,88.00
2023-04-16T04:51:07.452Z,88.00
2023-04-16T04:53:34.425Z,88.00
2023-04-16T04:56:09.131Z,88.00
2023-04-16T04:58:40.048Z,88.00
2023-04-16T05:01:07.135Z,88.00
2023-04-16T05:03:34.376Z,88.00
2023-04-16T05:06:01.504Z,88.00
2023-04-16T05:08:28.446Z,88.00
2023-04-16T05:10:57.490Z,87.90
2023-04-16T05:13:24.661Z,88.00
2023-04-16T05:15:51.740Z,88.00
2023-04-16T05:18:18.845Z,88.00
2023-04-16T05:20:46.203Z,88.00
2023-04-16T05:23:13.185Z,88.00
2023-04-16T05:25:40.241Z,88.10
2023-04-16T05:28:07.192Z,88.10
2023-04-16T05:30:34.318Z,88.10
2023-04-16T05:33:01.261Z,88.10
2023-04-16T05:35:28.477Z,88.10
2023-04-16T05:37:55.655Z,88.10
2023-04-16T05:40:22.805Z,88.10
2023-04-16T05:42:55.143Z,88.20
2023-04-16T05:45:22.281Z,88.20
2023-04-16T05:47:49.283Z,88.20
2023-04-16T05:50:16.321Z,88.20
2023-04-16T05:52:43.333Z,88.20
2023-04-16T05:55:10.601Z,88.10
2023-04-16T05:57:37.657Z,88.10
2023-04-16T06:00:11.037Z,88.10
2023-04-16T06:02:38.157Z,88.10
2023-04-16T06:05:08.742Z,88.00
2023-04-16T06:07:35.966Z,88.00
2023-04-16T06:10:05.535Z,88.00
2023-04-16T06:12:32.465Z,88.00
2023-04-16T06:15:00.719Z,87.90
2023-04-16T06:17:30.126Z,87.90
2023-04-16T06:19:57.152Z,87.90
2023-04-16T06:22:24.648Z,87.90
2023-04-16T06:24:52.686Z,87.80
2023-04-16T06:27:19.677Z,87.80
2023-04-16T06:29:46.644Z,87.70
2023-04-16T06:32:13.589Z,87.70
2023-04-16T06:34:40.790Z,87.70
2023-04-16T06:37:10.381Z,87.60
2023-04-16T06:39:37.819Z,87.60
2023-04-16T06:42:07.421Z,87.60
2023-04-16T06:44:35.132Z,87.60
2023-04-16T06:47:02.181Z,87.50
2023-04-16T06:49:29.187Z,87.50
2023-04-16T06:51:58.432Z,87.50
2023-04-16T06:54:25.687Z,87.30
2023-04-16T06:56:52.712Z,87.30
2023-04-16T06:59:19.653Z,87.30
2023-04-16T07:01:50.419Z,87.20
2023-04-16T07:04:17.489Z,87.00
2023-04-16T07:06:44.595Z,86.90
2023-04-16T07:09:11.757Z,86.80
2023-04-16T07:11:38.770Z,86.70
2023-04-16T07:14:05.810Z,86.50
2023-04-16T07:16:32.942Z,86.40
2023-04-16T07:19:00.001Z,86.30
2023-04-16T07:21:27.846Z,86.10
2023-04-16T07:23:55.316Z,86.00
2023-04-16T07:26:22.282Z,85.80
2023-04-16T07:28:49.358Z,85.70
2023-04-16T07:31:16.326Z,85.50
2023-04-16T07:33:43.593Z,85.30
2023-04-16T07:36:11.161Z,85.20
2023-04-16T07:38:38.214Z,85.10
2023-04-16T07:41:11.285Z,84.80
2023-04-16T07:43:38.279Z,84.70
2023-04-16T07:46:08.174Z,84.50
2023-04-16T07:48:35.662Z,84.30
2023-04-16T07:51:02.730Z,84.10
2023-04-16T07:53:29.699Z,83.80
2023-04-16T07:55:56.664Z,83.70
2023-04-16T07:58:23.814Z,83.50
2023-04-16T08:00:52.546Z,83.30
2023-04-16T08:03:39.494Z,83.00
2023-04-16T08:06:22.631Z,82.60
2023-04-16T08:08:51.331Z,82.40
2023-04-16T08:11:24.480Z,82.10
2023-04-16T08:14:07.715Z,81.80
2023-04-16T08:16:34.910Z,81.60
2023-04-16T08:19:02.141Z,81.40
2023-04-16T08:21:31.670Z,81.20
2023-04-16T08:24:58.278Z,80.80
2023-04-16T08:27:38.591Z,80.40
2023-04-16T08:30:24.464Z,80.20
2023-04-16T08:37:16.678Z,79.20
2023-04-16T08:39:55.046Z,78.80
2023-04-16T08:42:34.435Z,78.60
2023-04-16T08:45:14.735Z,78.20
2023-04-16T08:47:51.204Z,77.80
2023-04-16T09:01:49.292Z,76.20
2023-04-16T09:04:21.937Z,76.00
2023-04-16T09:07:12.139Z,75.70
2023-04-16T09:09:42.326Z,75.40
2023-04-16T09:12:11.802Z,75.20
2023-04-16T09:14:50.621Z,75.00
2023-04-16T09:17:21.126Z,74.70
2023-04-16T09:19:50.179Z,74.30
2023-04-16T09:22:17.438Z,73.90
2023-04-16T09:24:44.705Z,73.50
2023-04-16T09:27:15.035Z,73.20
2023-04-16T09:29:52.483Z,72.90
2023-04-16T09:32:24.585Z,72.60
2023-04-16T09:35:01.827Z,72.50
2023-04-16T09:37:31.531Z,72.10
2023-04-16T09:40:06.317Z,71.90
2023-04-16T09:42:37.411Z,71.50
2023-04-16T09:45:07.592Z,71.30
2023-04-16T09:47:42.202Z,71.20
2023-04-16T09:50:18.209Z,70.90
2023-04-16T09:52:48.328Z,70.90
2023-04-16T09:55:15.768Z,70.80
2023-04-16T09:57:42.821Z,70.60
2023-04-16T10:00:13.392Z,70.30
2023-04-16T10:02:41.930Z,70.00
2023-04-16T10:05:14.340Z,69.90
2023-04-16T10:07:41.456Z,69.70
2023-04-16T10:10:09.016Z,69.50
2023-04-16T10:12:36.273Z,69.20
2023-04-16T10:15:12.751Z,69.20
2023-04-16T10:17:39.948Z,69.10
2023-04-16T10:20:07.560Z,68.80
2023-04-16T10:22:37.163Z,68.40
2023-04-16T10:25:07.186Z,68.20
2023-04-16T10:27:36.747Z,67.80
2023-04-16T10:30:03.944Z,67.60
2023-04-16T10:32:31.708Z,68.10
2023-04-16T10:34:58.746Z,67.40
2023-04-16T10:37:51.349Z,67.30
2023-04-16T10:40:37.717Z,66.70
2023-04-16T10:43:07.495Z,66.70
2023-04-16T10:45:53.065Z,66.70
2023-04-16T10:49:24.587Z,66.20
2023-04-16T10:51:59.599Z,66.10
2023-04-16T10:54:30.773Z,66.10
2023-04-16T10:57:05.928Z,65.80
2023-04-16T10:59:36.490Z,65.60
2023-04-16T11:02:19.554Z,65.50
2023-04-16T11:04:48.072Z,65.20
2023-04-16T11:07:17.953Z,65.30
2023-04-16T11:09:47.800Z,65.10
2023-04-16T11:12:16.447Z,65.00
2023-04-16T11:14:43.556Z,64.70
2023-04-16T11:17:13.300Z,64.30
2023-04-16T11:19:43.062Z,64.10
2023-04-16T11:22:12.508Z,63.90
2023-04-16T11:24:41.180Z,63.80
2023-04-16T11:27:08.814Z,63.70
2023-04-16T11:29:36.275Z,63.50
2023-04-16T11:32:08.634Z,63.20
2023-04-16T11:34:43.368Z,62.90
2023-04-16T11:37:13.495Z,62.70
2023-04-16T11:39:52.897Z,62.60
2023-04-16T11:42:23.131Z,62.50
2023-04-16T11:45:04.267Z,62.60
2023-04-16T11:47:32.042Z,62.40
2023-04-16T11:49:59.148Z,62.50
2023-04-16T11:52:32.578Z,62.40
2023-04-16T11:54:59.827Z,62.30
2023-04-16T11:57:27.546Z,62.40
2023-04-16T12:00:02.450Z,62.00
2023-04-16T12:02:49.190Z,61.80
2023-04-16T12:05:33.960Z,61.20
2023-04-16T12:08:11.378Z,61.10
2023-04-16T12:11:08.353Z,61.10
2023-04-16T12:13:40.168Z,61.10
2023-04-16T12:16:17.066Z,60.80
2023-04-16T12:18:59.361Z,60.20
2023-04-16T12:21:26.709Z,59.80
2023-04-16T12:23:54.177Z,59.80
2023-04-16T12:26:21.360Z,59.50
2023-04-16T12:28:48.348Z,59.40
2023-04-16T12:31:15.964Z,59.10
2023-04-16T12:33:43.045Z,58.80
2023-04-16T12:36:19.868Z,58.70
2023-04-16T12:38:47.074Z,58.50
2023-04-16T12:41:14.013Z,58.50
2023-04-16T12:43:41.014Z,58.30
2023-04-16T12:46:08.064Z,58.10
2023-04-16T12:48:34.986Z,57.80
2023-04-16T12:51:09.516Z,57.70
2023-04-16T12:53:36.592Z,57.80
2023-04-16T12:56:14.021Z,57.60
2023-04-16T12:58:41.576Z,57.50
2023-04-16T13:01:08.883Z,57.50
2023-04-16T13:03:37.459Z,57.50
2023-04-16T13:06:08.756Z,57.30
2023-04-16T13:08:38.292Z,57.20
2023-04-16T13:11:14.187Z,57.20
2023-04-16T13:13:41.218Z,57.00
2023-04-16T13:16:10.583Z,57.00
2023-04-16T13:18:43.296Z,56.90
2023-04-16T13:21:17.484Z,56.90
2023-04-16T13:23:48.616Z,56.70
2023-04-16T13:26:16.515Z,56.70
2023-04-16T13:28:43.773Z,56.70
2023-04-16T13:31:13.183Z,56.60
2023-04-16T13:33:40.441Z,56.60
2023-04-16T13:36:10.093Z,56.70
2023-04-16T13:38:39.662Z,56.60
2023-04-16T13:41:13.029Z,56.50
2023-04-16T13:43:40.149Z,56.30
2023-04-16T13:46:18.086Z,56.50
2023-04-16T13:48:47.847Z,56.40
2023-04-16T13:51:15.684Z,56.40
2023-04-16T13:53:42.626Z,56.30
2023-04-16T13:56:11.385Z,56.10
2023-04-16T13:58:38.628Z,56.10
2023-04-16T14:01:06.090Z,56.20
2023-04-16T14:03:36.188Z,56.10
2023-04-16T14:06:03.670Z,56.10
2023-04-16T14:08:31.053Z,55.90
2023-04-16T14:10:58.265Z,55.90
2023-04-16T14:13:25.596Z,55.70
2023-04-16T14:15:55.900Z,55.60
2023-04-16T14:18:23.380Z,55.40
2023-04-16T14:20:50.817Z,55.20
2023-04-16T14:23:18.120Z,55.10
2023-04-16T14:25:45.107Z,55.00
2023-04-16T14:28:14.233Z,55.10
2023-04-16T14:30:42.452Z,55.20
2023-04-16T14:33:12.172Z,55.00
2023-04-16T14:35:39.254Z,55.20
2023-04-16T14:38:06.674Z,55.40
2023-04-16T14:40:36.640Z,55.50
2023-04-16T14:43:06.395Z,55.60
2023-04-16T14:45:33.633Z,55.50
2023-04-16T14:48:03.777Z,55.30
2023-04-16T14:50:31.012Z,55.30
2023-04-16T14:53:10.394Z,55.30
2023-04-16T14:55:37.601Z,55.20
2023-04-16T14:58:20.341Z,55.20
2023-04-16T15:01:09.189Z,55.10
2023-04-16T15:03:46.948Z,55.00
2023-04-16T15:06:16.766Z,55.00
2023-04-16T15:11:30.024Z,55.10
2023-04-16T15:14:02.980Z,55.20
2023-04-16T15:16:31.864Z,55.30
2023-04-16T15:18:59.134Z,55.30
2023-04-16T15:21:26.992Z,55.30
2023-04-16T15:23:59.276Z,55.40
2023-04-16T15:26:46.932Z,55.30
2023-04-16T15:30:10.102Z,55.30
2023-04-16T15:32:37.258Z,55.40
2023-04-16T15:35:05.079Z,55.70
2023-04-16T15:37:32.107Z,55.80
2023-04-16T15:39:59.142Z,55.80
2023-04-16T15:42:26.151Z,55.70
2023-04-16T15:44:53.035Z,55.50
2023-04-16T15:47:19.930Z,55.50
2023-04-16T15:49:46.817Z,55.50
2023-04-16T15:52:13.789Z,55.40
2023-04-16T15:54:41.003Z,55.60
2023-04-16T15:57:08.017Z,55.70
2023-04-16T15:59:35.028Z,55.90
2023-04-16T16:02:02.174Z,56.00
2023-04-16T16:04:29.205Z,56.20
2023-04-16T16:06:56.525Z,56.30
2023-04-16T16:09:26.628Z,56.50
2023-04-16T16:11:57.355Z,56.60
2023-04-16T16:14:24.415Z,56.60
2023-04-16T16:16:52.006Z,56.80
2023-04-16T16:19:24.620Z,56.80
2023-04-16T16:21:51.689Z,56.90
2023-04-16T16:24:22.994Z,57.00
2023-04-16T16:26:49.986Z,57.00
2023-04-16T16:29:24.377Z,57.00
2023-04-16T16:31:56.003Z,57.50
2023-04-16T16:34:23.223Z,56.90
2023-04-16T16:36:50.224Z,56.80
2023-04-16T16:39:26.709Z,56.70
2023-04-16T16:41:54.897Z,56.80
2023-04-16T16:44:28.611Z,56.90
2023-04-16T16:46:57.907Z,57.00
2023-04-16T16:49:35.143Z,57.00
2023-04-16T16:52:07.266Z,57.00
2023-04-16T16:54:41.478Z,57.30
2023-04-16T16:57:17.921Z,57.50
2023-04-16T16:59:54.498Z,57.70
2023-04-16T17:02:23.698Z,57.80
2023-04-16T17:04:51.974Z,58.40
2023-04-16T17:07:27.496Z,57.90
2023-04-16T17:09:56.897Z,57.90
2023-04-16T17:12:24.160Z,58.00
2023-04-16T17:14:51.589Z,58.10
2023-04-16T17:17:20.174Z,58.20
2023-04-16T17:19:47.200Z,58.20
2023-04-16T17:22:14.494Z,58.30
2023-04-16T17:24:41.649Z,58.40
2023-04-16T17:27:08.671Z,58.50
2023-04-16T17:29:38.174Z,58.50
2023-04-16T17:32:06.570Z,58.50
2023-04-16T17:34:33.508Z,58.60
2023-04-16T17:37:00.586Z,58.70
2023-04-16T17:39:27.612Z,58.70
2023-04-16T17:41:58.635Z,58.70
2023-04-16T17:44:27.446Z,58.60
2023-04-16T17:46:54.468Z,58.60
2023-04-16T17:49:21.413Z,58.70
2023-04-16T17:51:51.561Z,58.80
2023-04-16T17:54:21.567Z,58.80
2023-04-16T17:56:48.585Z,58.90
2023-04-16T17:59:15.599Z,58.90
2023-04-16T18:01:42.706Z,58.90
2023-04-16T18:04:10.198Z,58.90
2023-04-16T18:06:37.710Z,58.90
2023-04-16T18:09:06.079Z,58.90
2023-04-16T18:11:33.254Z,58.90
2023-04-16T18:14:00.378Z,59.00
2023-04-16T18:16:29.481Z,58.90
2023-04-16T18:18:56.484Z,59.00
2023-04-16T18:21:23.480Z,59.00
2023-04-16T18:23:50.338Z,59.10
2023-04-16T18:26:20.542Z,59.10
2023-04-16T18:28:49.166Z,59.20
2023-04-16T18:31:19.056Z,59.30
2023-04-16T18:33:57.856Z,59.30
2023-04-16T18:36:27.014Z,59.30
2023-04-16T18:39:00.876Z,59.30
2023-04-16T18:41:29.068Z,59.50
2023-04-16T18:43:56.112Z,59.50
2023-04-16T18:46:23.220Z,59.50
2023-04-16T18:48:50.208Z,59.60
2023-04-16T18:51:19.477Z,59.70
2023-04-16T18:53:46.557Z,59.80
2023-04-16T18:56:13.500Z,59.90
2023-04-16T18:58:52.698Z,60.00
2023-04-16T19:01:35.309Z,60.10
2023-04-16T19:04:06.078Z,60.30
2023-04-16T19:06:33.101Z,60.40
2023-04-16T19:09:00.352Z,60.60
2023-04-16T19:11:28.466Z,61.20
2023-04-16T19:13:55.862Z,60.80
2023-04-16T19:16:23.285Z,61.00
2023-04-16T19:18:52.379Z,61.10
2023-04-16T19:21:19.235Z,61.20
2023-04-16T19:23:46.633Z,61.30
2023-04-16T19:26:13.799Z,61.40
2023-04-16T19:28:42.566Z,61.50
2023-04-16T19:31:12.007Z,61.70
2023-04-16T19:33:39.162Z,61.80
2023-04-16T19:36:06.432Z,61.90
2023-04-16T19:38:33.403Z,62.60
2023-04-16T19:41:00.496Z,62.20
2023-04-16T19:43:31.134Z,62.30
2023-04-16T19:45:58.365Z,62.50
2023-04-16T19:48:26.351Z,62.60
2023-04-16T19:50:53.348Z,62.70
2023-04-16T19:53:21.644Z,62.80
2023-04-16T19:55:49.864Z,63.00
2023-04-16T19:58:21.691Z,63.10
2023-04-16T20:00:48.720Z,63.10
2023-04-16T20:03:17.919Z,63.20
2023-04-16T20:05:50.058Z,63.40
2023-04-16T20:08:20.115Z,63.40
2023-04-16T20:10:50.041Z,63.60
2023-04-16T20:13:20.187Z,63.70
2023-04-16T20:15:50.249Z,63.70
2023-04-16T20:18:18.143Z,63.90
2023-04-16T20:20:45.366Z,63.90
2023-04-16T20:23:12.487Z,64.00
2023-04-16T20:25:43.213Z,64.10
2023-04-16T20:28:10.581Z,64.20
2023-04-16T20:30:40.565Z,64.30
2023-04-16T20:33:12.602Z,64.40
2023-04-16T20:35:40.056Z,64.50
2023-04-16T20:38:10.312Z,64.60
2023-04-16T20:40:38.944Z,64.70
2023-04-16T20:43:10.260Z,64.80
2023-04-16T20:45:42.900Z,64.90
2023-04-16T20:48:12.540Z,65.00
2023-04-16T20:50:48.777Z,65.00
2023-04-16T20:58:04.342Z,65.20
2023-04-16T21:00:34.273Z,65.20
2023-04-16T21:03:01.356Z,65.20
2023-04-16T21:05:30.186Z,65.30
2023-04-16T21:08:06.491Z,65.40
2023-04-16T21:10:33.573Z,65.50
2023-04-16T21:13:06.336Z,65.60
2023-04-16T21:15:34.942Z,65.60
2023-04-16T21:18:17.067Z,65.70
2023-04-16T21:20:45.157Z,65.80
2023-04-16T21:23:15.164Z,65.80
2023-04-16T21:25:45.340Z,65.90
2023-04-16T21:28:32.131Z,66.00
2023-04-16T21:30:59.130Z,66.10
2023-04-16T21:33:26.136Z,66.10
2023-04-16T21:35:53.539Z,66.20
2023-04-16T21:38:20.910Z,66.20
2023-04-16T21:40:54.005Z,66.40
2023-04-16T21:43:29.065Z,66.50
2023-04-16T21:45:56.314Z,66.50
2023-04-16T21:48:25.612Z,66.50
2023-04-16T21:51:00.171Z,66.60
2023-04-16T21:53:32.668Z,66.70
2023-04-16T21:56:03.579Z,66.70
2023-04-16T21:58:30.766Z,66.80
2023-04-16T22:01:00.979Z,66.90
2023-04-16T22:03:30.986Z,67.00
2023-04-16T22:06:01.920Z,67.00
2023-04-16T22:08:32.150Z,67.10
2023-04-16T22:10:59.943Z,67.20
2023-04-16T22:14:30.216Z,67.30
2023-04-16T22:16:59.476Z,67.50
2023-04-16T22:19:38.674Z,67.50
2023-04-16T22:22:05.737Z,67.60
2023-04-16T22:24:32.688Z,67.70
2023-04-16T22:26:59.625Z,67.80
2023-04-16T22:29:34.899Z,67.90
2023-04-16T22:32:02.112Z,68.10
2023-04-16T22:34:29.286Z,68.10
2023-04-16T22:36:56.460Z,68.20
2023-04-16T22:39:26.519Z,68.40
2023-04-16T22:41:53.722Z,68.50
2023-04-16T22:44:20.681Z,68.60
2023-04-16T22:46:50.349Z,68.70
2023-04-16T22:49:17.318Z,68.80
2023-04-16T22:51:45.006Z,68.90
2023-04-16T22:54:13.889Z,69.00
2023-04-16T22:56:41.284Z,69.10
2023-04-16T22:59:08.368Z,69.10
2023-04-16T23:01:37.863Z,69.20
2023-04-16T23:04:11.364Z,69.30
2023-04-16T23:06:40.890Z,69.40
2023-04-16T23:09:08.151Z,69.50
2023-04-16T23:11:35.081Z,69.80
2023-04-16T23:14:02.656Z,69.90
2023-04-16T23:16:29.746Z,70.00
2023-04-16T23:18:56.679Z,70.20
2023-04-16T23:21:23.879Z,70.30
2023-04-16T23:23:51.086Z,70.30
2023-04-16T23:26:18.072Z,70.90
2023-04-16T23:28:45.315Z,70.50
2023-04-16T23:31:12.297Z,70.70
2023-04-16T23:33:39.337Z,70.80
2023-04-16T23:36:06.745Z,70.90
2023-04-16T23:38:33.747Z,71.10
2023-04-16T23:41:00.858Z,71.20
2023-04-16T23:43:27.893Z,71.30
2023-04-16T23:52:28.079Z,71.70
2023-04-16T23:54:54.975Z,71.60
2023-04-16T23:57:22.042Z,71.70
2023-04-16T23:59:49.007Z,71.80
